sensor_id;sensor_type;location;lat;lon;timestamp;pressure;altitude;pressure_sealevel;temperature;humidity
18988;BME280;5494;51.796;10.952;2023-04-24T00:02:18;97628.19;;;13.29;93.07
18988;BME280;5494;51.796;10.952;2023-04-24T00:04:47;97628.69;;;13.23;93.10
18988;BME280;5494;51.796;10.952;2023-04-24T00:07:16;97633.13;;;13.12;95.11
18988;BME280;5494;51.796;10.952;2023-04-24T00:09:44;97635.84;;;13.10;95.57
18988;BME280;5494;51.796;10.952;2023-04-24T00:12:12;97634.69;;;13.03;96.12
18988;BME280;5494;51.796;10.952;2023-04-24T00:14:41;97633.88;;;13.02;95.99
18988;BME280;5494;51.796;10.952;2023-04-24T00:17:09;97632.97;;;13.24;95.16
18988;BME280;5494;51.796;10.952;2023-04-24T00:19:37;97628.13;;;13.09;95.64
18988;BME280;5494;51.796;10.952;2023-04-24T00:22:05;97618.38;;;13.22;95.29
18988;BME280;5494;51.796;10.952;2023-04-24T00:24:33;97627.31;;;13.08;95.59
18988;BME280;5494;51.796;10.952;2023-04-24T00:27:01;97623.50;;;12.91;97.20
18988;BME280;5494;51.796;10.952;2023-04-24T00:29:29;97624.34;;;12.81;98.60
18988;BME280;5494;51.796;10.952;2023-04-24T00:31:58;97612.75;;;12.85;99.25
18988;BME280;5494;51.796;10.952;2023-04-24T00:34:27;97628.63;;;12.82;99.76
18988;BME280;5494;51.796;10.952;2023-04-24T00:36:54;97633.97;;;12.80;100.00
18988;BME280;5494;51.796;10.952;2023-04-24T00:39:22;97620.84;;;12.71;100.00
18988;BME280;5494;51.796;10.952;2023-04-24T00:41:51;97622.69;;;12.80;99.68
18988;BME280;5494;51.796;10.952;2023-04-24T00:44:19;97630.56;;;12.69;100.00
18988;BME280;5494;51.796;10.952;2023-04-24T00:46:47;97628.19;;;12.66;100.00
18988;BME280;5494;51.796;10.952;2023-04-24T00:49:20;97628.63;;;12.50;100.00
18988;BME280;5494;51.796;10.952;2023-04-24T00:51:49;97624.25;;;12.50;100.00
18988;BME280;5494;51.796;10.952;2023-04-24T00:54:18;97623.88;;;12.55;100.00
18988;BME280;5494;51.796;10.952;2023-04-24T00:56:46;97618.31;;;12.48;100.00
18988;BME280;5494;51.796;10.952;2023-04-24T00:59:16;97622.38;;;12.41;100.00
18988;BME280;5494;51.796;10.952;2023-04-24T01:01:45;97615.00;;;12.46;100.00
18988;BME280;5494;51.796;10.952;2023-04-24T01:04:14;97613.63;;;12.31;100.00
18988;BME280;5494;51.796;10.952;2023-04-24T01:06:45;97609.72;;;12.26;100.00
18988;BME280;5494;51.796;10.952;2023-04-24T01:09:14;97611.75;;;12.22;100.00
18988;BME280;5494;51.796;10.952;2023-04-24T01:11:42;97614.69;;;12.29;100.00
18988;BME280;5494;51.796;10.952;2023-04-24T01:14:11;97617.91;;;12.21;100.00
18988;BME280;5494;51.796;10.952;2023-04-24T01:16:40;97610.69;;;12.13;100.00
18988;BME280;5494;51.796;10.952;2023-04-24T01:19:10;97618.28;;;12.16;100.00
18988;BME280;5494;51.796;10.952;2023-04-24T01:21:39;97616.28;;;12.09;100.00
18988;BME280;5494;51.796;10.952;2023-04-24T01:24:10;97612.25;;;12.05;100.00
18988;BME280;5494;51.796;10.952;2023-04-24T01:26:39;97619.72;;;11.98;100.00
18988;BME280;5494;51.796;10.952;2023-04-24T01:29:07;97612.00;;;11.97;100.00
18988;BME280;5494;51.796;10.952;2023-04-24T01:31:37;97610.00;;;12.00;100.00
18988;BME280;5494;51.796;10.952;2023-04-24T01:34:06;97607.97;;;12.04;100.00
18988;BME280;5494;51.796;10.952;2023-04-24T01:36:35;97608.25;;;12.01;100.00
18988;BME280;5494;51.796;10.952;2023-04-24T01:39:03;97601.50;;;11.87;100.00
18988;BME280;5494;51.796;10.952;2023-04-24T01:41:33;97610.47;;;11.83;100.00
18988;BME280;5494;51.796;10.952;2023-04-24T01:44:02;97605.06;;;11.75;100.00
18988;BME280;5494;51.796;10.952;2023-04-24T01:46:30;97601.25;;;11.79;100.00
18988;BME280;5494;51.796;10.952;2023-04-24T01:49:00;97597.13;;;11.88;100.00
18988;BME280;5494;51.796;10.952;2023-04-24T01:51:28;97586.94;;;11.84;100.00
18988;BME280;5494;51.796;10.952;2023-04-24T01:53:56;97572.16;;;11.85;100.00
18988;BME280;5494;51.796;10.952;2023-04-24T01:56:28;97571.44;;;11.83;100.00
18988;BME280;5494;51.796;10.952;2023-04-24T01:58:59;97557.59;;;11.82;100.00
18988;BME280;5494;51.796;10.952;2023-04-24T02:01:33;97555.69;;;11.73;100.00
18988;BME280;5494;51.796;10.952;2023-04-24T02:04:01;97551.09;;;11.77;100.00
18988;BME280;5494;51.796;10.952;2023-04-24T02:06:30;97552.84;;;11.76;100.00
18988;BME280;5494;51.796;10.952;2023-04-24T02:09:00;97540.00;;;11.75;100.00
18988;BME280;5494;51.796;10.952;2023-04-24T02:11:28;97543.88;;;11.80;100.00
18988;BME280;5494;51.796;10.952;2023-04-24T02:13:58;97538.78;;;11.79;100.00
18988;BME280;5494;51.796;10.952;2023-04-24T02:16:27;97541.75;;;11.74;100.00
18988;BME280;5494;51.796;10.952;2023-04-24T02:18:57;97527.16;;;11.72;100.00
18988;BME280;5494;51.796;10.952;2023-04-24T02:21:25;97534.16;;;11.71;100.00
18988;BME280;5494;51.796;10.952;2023-04-24T02:23:54;97533.44;;;11.69;100.00
18988;BME280;5494;51.796;10.952;2023-04-24T02:26:22;97537.56;;;11.72;100.00
18988;BME280;5494;51.796;10.952;2023-04-24T02:28:51;97537.69;;;11.70;100.00
18988;BME280;5494;51.796;10.952;2023-04-24T02:31:21;97540.56;;;11.67;100.00
18988;BME280;5494;51.796;10.952;2023-04-24T02:33:49;97542.06;;;11.70;100.00
18988;BME280;5494;51.796;10.952;2023-04-24T02:36:17;97529.06;;;11.70;100.00
18988;BME280;5494;51.796;10.952;2023-04-24T02:38:45;97523.28;;;11.66;100.00
18988;BME280;5494;51.796;10.952;2023-04-24T02:41:13;97527.53;;;11.67;100.00
18988;BME280;5494;51.796;10.952;2023-04-24T02:43:42;97533.69;;;11.66;100.00
18988;BME280;5494;51.796;10.952;2023-04-24T02:46:10;97528.47;;;11.66;100.00
18988;BME280;5494;51.796;10.952;2023-04-24T02:48:39;97532.59;;;11.69;100.00
18988;BME280;5494;51.796;10.952;2023-04-24T02:51:07;97525.16;;;11.64;100.00
18988;BME280;5494;51.796;10.952;2023-04-24T02:53:35;97519.13;;;11.64;100.00
18988;BME280;5494;51.796;10.952;2023-04-24T02:56:04;97516.19;;;11.57;100.00
18988;BME280;5494;51.796;10.952;2023-04-24T02:58:32;97521.50;;;11.56;100.00
18988;BME280;5494;51.796;10.952;2023-04-24T03:01:00;97515.59;;;11.54;100.00
18988;BME280;5494;51.796;10.952;2023-04-24T03:03:28;97516.66;;;11.51;100.00
18988;BME280;5494;51.796;10.952;2023-04-24T03:05:58;97508.84;;;11.51;100.00
18988;BME280;5494;51.796;10.952;2023-04-24T03:08:26;97499.16;;;11.53;100.00
18988;BME280;5494;51.796;10.952;2023-04-24T03:10:54;97500.81;;;11.54;100.00
18988;BME280;5494;51.796;10.952;2023-04-24T03:13:22;97502.72;;;11.52;100.00
18988;BME280;5494;51.796;10.952;2023-04-24T03:15:50;97506.13;;;11.53;100.00
18988;BME280;5494;51.796;10.952;2023-04-24T03:18:18;97497.72;;;11.49;100.00
18988;BME280;5494;51.796;10.952;2023-04-24T03:20:48;97507.91;;;11.52;100.00
18988;BME280;5494;51.796;10.952;2023-04-24T03:23:18;97512.66;;;11.47;100.00
18988;BME280;5494;51.796;10.952;2023-04-24T03:25:47;97512.88;;;11.44;100.00
18988;BME280;5494;51.796;10.952;2023-04-24T03:28:16;97518.94;;;11.33;100.00
18988;BME280;5494;51.796;10.952;2023-04-24T03:30:49;97508.97;;;11.27;100.00
18988;BME280;5494;51.796;10.952;2023-04-24T03:33:20;97513.72;;;11.33;100.00
18988;BME280;5494;51.796;10.952;2023-04-24T03:35:57;97513.13;;;11.30;100.00
18988;BME280;5494;51.796;10.952;2023-04-24T03:38:28;97525.41;;;11.28;100.00
18988;BME280;5494;51.796;10.952;2023-04-24T03:41:19;97523.78;;;11.27;100.00
18988;BME280;5494;51.796;10.952;2023-04-24T03:43:53;97532.53;;;11.26;100.00
18988;BME280;5494;51.796;10.952;2023-04-24T03:46:21;97541.47;;;11.22;100.00
18988;BME280;5494;51.796;10.952;2023-04-24T03:48:54;97536.75;;;11.16;100.00
18988;BME280;5494;51.796;10.952;2023-04-24T03:51:26;97544.44;;;11.17;100.00
18988;BME280;5494;51.796;10.952;2023-04-24T03:54:04;97559.22;;;11.17;100.00
18988;BME280;5494;51.796;10.952;2023-04-24T03:56:35;97550.13;;;11.11;100.00
18988;BME280;5494;51.796;10.952;2023-04-24T03:59:03;97556.63;;;11.05;100.00
18988;BME280;5494;51.796;10.952;2023-04-24T04:01:32;97561.00;;;11.05;100.00
18988;BME280;5494;51.796;10.952;2023-04-24T04:04:09;97558.25;;;11.06;100.00
18988;BME280;5494;51.796;10.952;2023-04-24T04:06:38;97562.13;;;11.01;100.00
18988;BME280;5494;51.796;10.952;2023-04-24T04:09:08;97549.25;;;10.99;100.00
18988;BME280;5494;51.796;10.952;2023-04-24T04:11:36;97565.34;;;11.04;100.00
18988;BME280;5494;51.796;10.952;2023-04-24T04:14:04;97561.00;;;11.16;100.00
18988;BME280;5494;51.796;10.952;2023-04-24T04:16:37;97567.50;;;11.22;100.00
18988;BME280;5494;51.796;10.952;2023-04-24T04:19:06;97567.50;;;11.22;100.00
18988;BME280;5494;51.796;10.952;2023-04-24T04:21:35;97571.41;;;11.27;100.00
18988;BME280;5494;51.796;10.952;2023-04-24T04:24:18;97583.34;;;11.30;100.00
18988;BME280;5494;51.796;10.952;2023-04-24T04:26:46;97592.72;;;11.32;100.00
18988;BME280;5494;51.796;10.952;2023-04-24T04:29:30;97579.47;;;11.58;100.00
18988;BME280;5494;51.796;10.952;2023-04-24T04:32:00;97573.22;;;11.60;100.00
18988;BME280;5494;51.796;10.952;2023-04-24T04:34:33;97573.91;;;11.62;100.00
18988;BME280;5494;51.796;10.952;2023-04-24T04:37:01;97584.59;;;11.81;100.00
18988;BME280;5494;51.796;10.952;2023-04-24T04:39:41;97588.31;;;12.11;100.00
18988;BME280;5494;51.796;10.952;2023-04-24T04:42:18;97575.47;;;12.41;100.00
18988;BME280;5494;51.796;10.952;2023-04-24T04:44:46;97578.00;;;12.52;100.00
18988;BME280;5494;51.796;10.952;2023-04-24T04:47:21;97575.63;;;12.81;97.42
18988;BME280;5494;51.796;10.952;2023-04-24T04:49:50;97576.91;;;13.08;95.88
18988;BME280;5494;51.796;10.952;2023-04-24T04:52:23;97577.09;;;13.27;92.19
18988;BME280;5494;51.796;10.952;2023-04-24T04:54:59;97580.13;;;13.32;92.52
18988;BME280;5494;51.796;10.952;2023-04-24T04:57:46;97593.91;;;13.13;92.49
18988;BME280;5494;51.796;10.952;2023-04-24T05:00:14;97588.88;;;13.10;93.84
18988;BME280;5494;51.796;10.952;2023-04-24T05:02:49;97585.13;;;13.03;93.82
18988;BME280;5494;51.796;10.952;2023-04-24T05:05:18;97587.66;;;12.93;95.44
18988;BME280;5494;51.796;10.952;2023-04-24T05:07:46;97584.09;;;12.74;97.89
18988;BME280;5494;51.796;10.952;2023-04-24T05:10:17;97583.88;;;12.66;99.29
18988;BME280;5494;51.796;10.952;2023-04-24T05:12:45;97592.19;;;12.59;100.00
18988;BME280;5494;51.796;10.952;2023-04-24T05:15:13;97593.00;;;12.71;99.21
18988;BME280;5494;51.796;10.952;2023-04-24T05:17:41;97590.63;;;12.68;99.43
18988;BME280;5494;51.796;10.952;2023-04-24T05:20:10;97588.84;;;12.69;100.00
18988;BME280;5494;51.796;10.952;2023-04-24T05:22:38;97581.63;;;12.72;100.00
18988;BME280;5494;51.796;10.952;2023-04-24T05:25:07;97585.31;;;12.70;100.00
18988;BME280;5494;51.796;10.952;2023-04-24T05:27:48;97589.81;;;12.68;100.00
18988;BME280;5494;51.796;10.952;2023-04-24T05:30:17;97573.44;;;12.66;100.00
18988;BME280;5494;51.796;10.952;2023-04-24T05:32:45;97577.38;;;12.71;100.00
18988;BME280;5494;51.796;10.952;2023-04-24T05:35:14;97590.56;;;12.79;100.00
18988;BME280;5494;51.796;10.952;2023-04-24T05:37:42;97594.69;;;12.93;98.51
18988;BME280;5494;51.796;10.952;2023-04-24T05:40:11;97573.31;;;12.99;96.11
18988;BME280;5494;51.796;10.952;2023-04-24T05:42:39;97577.13;;;13.16;96.50
18988;BME280;5494;51.796;10.952;2023-04-24T05:45:09;97568.53;;;13.25;93.89
18988;BME280;5494;51.796;10.952;2023-04-24T05:47:43;97566.28;;;13.71;93.07
18988;BME280;5494;51.796;10.952;2023-04-24T05:50:12;97567.94;;;14.32;88.34
18988;BME280;5494;51.796;10.952;2023-04-24T05:52:40;97566.78;;;14.65;83.73
18988;BME280;5494;51.796;10.952;2023-04-24T05:55:21;97578.03;;;14.46;81.95
18988;BME280;5494;51.796;10.952;2023-04-24T05:57:49;97577.91;;;14.38;82.79
18988;BME280;5494;51.796;10.952;2023-04-24T06:00:19;97572.72;;;14.07;84.60
18988;BME280;5494;51.796;10.952;2023-04-24T06:02:57;97579.44;;;14.00;86.03
18988;BME280;5494;51.796;10.952;2023-04-24T06:05:26;97581.47;;;13.87;86.78
18988;BME280;5494;51.796;10.952;2023-04-24T06:07:55;97591.31;;;13.74;88.15
18988;BME280;5494;51.796;10.952;2023-04-24T06:10:26;97587.81;;;13.64;88.93
18988;BME280;5494;51.796;10.952;2023-04-24T06:12:55;97593.09;;;13.73;88.95
18988;BME280;5494;51.796;10.952;2023-04-24T06:15:30;97599.19;;;13.53;89.80
18988;BME280;5494;51.796;10.952;2023-04-24T06:18:08;97593.28;;;13.51;90.21
18988;BME280;5494;51.796;10.952;2023-04-24T06:20:38;97597.41;;;13.54;90.40
18988;BME280;5494;51.796;10.952;2023-04-24T06:23:08;97580.22;;;13.51;89.46
18988;BME280;5494;51.796;10.952;2023-04-24T06:25:37;97590.91;;;13.69;89.04
18988;BME280;5494;51.796;10.952;2023-04-24T06:28:05;97580.75;;;13.85;87.29
18988;BME280;5494;51.796;10.952;2023-04-24T06:30:34;97583.78;;;13.90;86.50
18988;BME280;5494;51.796;10.952;2023-04-24T06:33:02;97584.06;;;13.87;86.15
18988;BME280;5494;51.796;10.952;2023-04-24T06:35:46;97590.66;;;13.82;86.84
18988;BME280;5494;51.796;10.952;2023-04-24T06:38:14;97589.03;;;13.90;86.35
18988;BME280;5494;51.796;10.952;2023-04-24T06:40:42;97583.66;;;13.82;86.34
18988;BME280;5494;51.796;10.952;2023-04-24T06:43:10;97581.16;;;13.80;87.11
18988;BME280;5494;51.796;10.952;2023-04-24T06:45:40;97584.09;;;13.97;85.52
18988;BME280;5494;51.796;10.952;2023-04-24T06:48:10;97592.34;;;13.92;86.18
18988;BME280;5494;51.796;10.952;2023-04-24T06:50:38;97591.19;;;13.75;87.34
18988;BME280;5494;51.796;10.952;2023-04-24T06:53:06;97597.59;;;13.62;88.68
18988;BME280;5494;51.796;10.952;2023-04-24T06:55:35;97587.00;;;13.63;89.24
18988;BME280;5494;51.796;10.952;2023-04-24T06:58:03;97595.22;;;13.59;89.99
18988;BME280;5494;51.796;10.952;2023-04-24T07:00:32;97597.84;;;13.59;90.31
18988;BME280;5494;51.796;10.952;2023-04-24T07:03:03;97593.28;;;13.82;89.73
18988;BME280;5494;51.796;10.952;2023-04-24T07:05:32;97592.66;;;14.08;88.15
18988;BME280;5494;51.796;10.952;2023-04-24T07:08:02;97589.00;;;14.30;85.46
18988;BME280;5494;51.796;10.952;2023-04-24T07:10:30;97580.38;;;14.87;82.29
18988;BME280;5494;51.796;10.952;2023-04-24T07:13:00;97584.03;;;15.33;78.34
18988;BME280;5494;51.796;10.952;2023-04-24T07:15:29;97577.88;;;15.71;73.32
18988;BME280;5494;51.796;10.952;2023-04-24T07:17:57;97577.53;;;15.47;72.70
18988;BME280;5494;51.796;10.952;2023-04-24T07:20:26;97578.28;;;15.76;70.87
18988;BME280;5494;51.796;10.952;2023-04-24T07:22:54;97581.41;;;16.34;67.82
18988;BME280;5494;51.796;10.952;2023-04-24T07:25:22;97576.19;;;17.05;62.89
18988;BME280;5494;51.796;10.952;2023-04-24T07:27:50;97590.63;;;17.09;61.16
18988;BME280;5494;51.796;10.952;2023-04-24T07:30:18;97581.91;;;16.65;60.29
18988;BME280;5494;51.796;10.952;2023-04-24T07:32:46;97590.63;;;16.38;61.93
18988;BME280;5494;51.796;10.952;2023-04-24T07:35:14;97592.88;;;16.06;62.90
18988;BME280;5494;51.796;10.952;2023-04-24T07:37:44;97598.47;;;15.93;64.26
18988;BME280;5494;51.796;10.952;2023-04-24T07:40:13;97596.53;;;16.23;63.17
18988;BME280;5494;51.796;10.952;2023-04-24T07:42:41;97591.88;;;16.62;62.16
18988;BME280;5494;51.796;10.952;2023-04-24T07:45:10;97579.69;;;16.43;58.53
18988;BME280;5494;51.796;10.952;2023-04-24T07:47:38;97599.00;;;16.24;60.24
18988;BME280;5494;51.796;10.952;2023-04-24T07:50:07;97585.63;;;17.42;56.02
18988;BME280;5494;51.796;10.952;2023-04-24T07:52:34;97575.41;;;18.48;51.92
18988;BME280;5494;51.796;10.952;2023-04-24T07:55:05;97580.88;;;18.63;50.85
18988;BME280;5494;51.796;10.952;2023-04-24T07:57:34;97573.56;;;18.41;50.05
18988;BME280;5494;51.796;10.952;2023-04-24T08:00:04;97577.44;;;18.95;48.82
18988;BME280;5494;51.796;10.952;2023-04-24T08:02:37;97578.94;;;19.22;48.04
18988;BME280;5494;51.796;10.952;2023-04-24T08:05:07;97569.50;;;19.44;45.24
18988;BME280;5494;51.796;10.952;2023-04-24T08:07:36;97585.44;;;18.45;47.04
18988;BME280;5494;51.796;10.952;2023-04-24T08:10:07;97592.09;;;18.15;47.78
18988;BME280;5494;51.796;10.952;2023-04-24T08:12:35;97595.81;;;17.70;49.72
18988;BME280;5494;51.796;10.952;2023-04-24T08:15:05;97603.47;;;17.56;50.46
18988;BME280;5494;51.796;10.952;2023-04-24T08:17:34;97596.63;;;18.39;48.49
18988;BME280;5494;51.796;10.952;2023-04-24T08:20:02;97587.16;;;19.27;46.20
18988;BME280;5494;51.796;10.952;2023-04-24T08:22:32;97593.06;;;19.37;44.68
18988;BME280;5494;51.796;10.952;2023-04-24T08:25:00;97596.69;;;19.36;44.04
18988;BME280;5494;51.796;10.952;2023-04-24T08:27:30;97594.09;;;19.99;44.11
18988;BME280;5494;51.796;10.952;2023-04-24T08:29:58;97597.59;;;20.39;42.76
18988;BME280;5494;51.796;10.952;2023-04-24T08:32:26;97594.03;;;20.77;41.30
18988;BME280;5494;51.796;10.952;2023-04-24T08:34:56;97587.81;;;20.70;40.83
18988;BME280;5494;51.796;10.952;2023-04-24T08:37:26;97592.88;;;20.18;39.91
18988;BME280;5494;51.796;10.952;2023-04-24T08:39:54;97608.97;;;18.55;42.46
18988;BME280;5494;51.796;10.952;2023-04-24T08:42:22;97630.69;;;17.73;44.64
18988;BME280;5494;51.796;10.952;2023-04-24T08:44:52;97627.53;;;17.25;46.51
18988;BME280;5494;51.796;10.952;2023-04-24T08:47:20;97632.72;;;17.87;46.43
18988;BME280;5494;51.796;10.952;2023-04-24T08:49:52;97622.72;;;18.91;43.84
18988;BME280;5494;51.796;10.952;2023-04-24T08:52:20;97630.06;;;19.92;41.44
18988;BME280;5494;51.796;10.952;2023-04-24T08:54:49;97620.41;;;20.55;39.25
18988;BME280;5494;51.796;10.952;2023-04-24T08:57:18;97617.47;;;20.50;39.32
18988;BME280;5494;51.796;10.952;2023-04-24T08:59:47;97612.41;;;21.16;37.44
18988;BME280;5494;51.796;10.952;2023-04-24T09:02:17;97624.31;;;21.20;36.21
18988;BME280;5494;51.796;10.952;2023-04-24T09:04:47;97631.78;;;19.61;37.34
18988;BME280;5494;51.796;10.952;2023-04-24T09:07:16;97636.41;;;20.14;36.54
18988;BME280;5494;51.796;10.952;2023-04-24T09:09:50;97629.06;;;20.40;34.67
18988;BME280;5494;51.796;10.952;2023-04-24T09:12:18;97635.13;;;21.03;33.44
18988;BME280;5494;51.796;10.952;2023-04-24T09:14:48;97640.44;;;21.63;32.94
18988;BME280;5494;51.796;10.952;2023-04-24T09:17:18;97637.81;;;21.63;33.20
18988;BME280;5494;51.796;10.952;2023-04-24T09:19:49;97646.94;;;20.61;33.78
18988;BME280;5494;51.796;10.952;2023-04-24T09:22:18;97645.66;;;20.57;34.26
18988;BME280;5494;51.796;10.952;2023-04-24T09:24:47;97652.25;;;20.14;34.06
18988;BME280;5494;51.796;10.952;2023-04-24T09:27:15;97654.44;;;20.50;32.41
18988;BME280;5494;51.796;10.952;2023-04-24T09:29:54;97657.09;;;20.02;34.32
18988;BME280;5494;51.796;10.952;2023-04-24T09:32:24;97645.19;;;20.06;34.72
18988;BME280;5494;51.796;10.952;2023-04-24T09:35:10;97654.75;;;21.08;33.54
18988;BME280;5494;51.796;10.952;2023-04-24T09:37:41;97641.16;;;21.19;33.27
18988;BME280;5494;51.796;10.952;2023-04-24T09:40:15;97645.47;;;21.73;31.72
18988;BME280;5494;51.796;10.952;2023-04-24T09:42:44;97650.25;;;21.92;31.96
18988;BME280;5494;51.796;10.952;2023-04-24T09:45:13;97643.13;;;22.36;30.53
18988;BME280;5494;51.796;10.952;2023-04-24T09:47:43;97636.66;;;22.39;29.52
18988;BME280;5494;51.796;10.952;2023-04-24T09:50:14;97636.00;;;21.93;30.60
18988;BME280;5494;51.796;10.952;2023-04-24T09:52:45;97644.06;;;21.99;31.21
18988;BME280;5494;51.796;10.952;2023-04-24T09:55:18;97648.00;;;22.18;29.51
18988;BME280;5494;51.796;10.952;2023-04-24T09:57:51;97652.81;;;21.02;30.14
18988;BME280;5494;51.796;10.952;2023-04-24T10:00:23;97650.13;;;20.88;31.07
18988;BME280;5494;51.796;10.952;2023-04-24T10:02:58;97642.06;;;20.81;31.54
18988;BME280;5494;51.796;10.952;2023-04-24T10:05:30;97626.16;;;21.12;30.22
18988;BME280;5494;51.796;10.952;2023-04-24T10:08:05;97651.16;;;21.47;30.59
18988;BME280;5494;51.796;10.952;2023-04-24T10:10:37;97649.25;;;22.37;30.29
18988;BME280;5494;51.796;10.952;2023-04-24T10:13:07;97645.94;;;22.50;29.71
18988;BME280;5494;51.796;10.952;2023-04-24T10:15:37;97642.19;;;22.95;29.27
18988;BME280;5494;51.796;10.952;2023-04-24T10:18:08;97646.78;;;22.21;30.02
18988;BME280;5494;51.796;10.952;2023-04-24T10:20:40;97661.16;;;21.74;30.96
18988;BME280;5494;51.796;10.952;2023-04-24T10:23:08;97660.09;;;20.47;32.29
18988;BME280;5494;51.796;10.952;2023-04-24T10:25:36;97657.81;;;20.35;32.53
18988;BME280;5494;51.796;10.952;2023-04-24T10:28:05;97675.13;;;20.30;33.69
18988;BME280;5494;51.796;10.952;2023-04-24T10:30:36;97652.38;;;20.37;33.25
18988;BME280;5494;51.796;10.952;2023-04-24T10:33:08;97669.53;;;19.61;34.01
18988;BME280;5494;51.796;10.952;2023-04-24T10:35:42;97685.13;;;19.06;36.02
18988;BME280;5494;51.796;10.952;2023-04-24T10:38:15;97680.63;;;18.74;34.74
18988;BME280;5494;51.796;10.952;2023-04-24T10:40:44;97686.88;;;18.73;35.19
18988;BME280;5494;51.796;10.952;2023-04-24T10:43:17;97679.03;;;18.98;34.74
18988;BME280;5494;51.796;10.952;2023-04-24T10:46:01;97674.97;;;18.61;35.19
18988;BME280;5494;51.796;10.952;2023-04-24T10:48:32;97683.78;;;19.02;35.39
18988;BME280;5494;51.796;10.952;2023-04-24T10:51:01;97695.22;;;18.27;36.76
18988;BME280;5494;51.796;10.952;2023-04-24T10:53:30;97681.19;;;18.52;36.75
18988;BME280;5494;51.796;10.952;2023-04-24T10:56:03;97678.94;;;18.57;36.84
18988;BME280;5494;51.796;10.952;2023-04-24T10:58:40;97690.41;;;18.14;37.46
18988;BME280;5494;51.796;10.952;2023-04-24T11:01:24;97685.94;;;17.81;37.43
18988;BME280;5494;51.796;10.952;2023-04-24T11:03:58;97692.81;;;17.56;38.63
18988;BME280;5494;51.796;10.952;2023-04-24T11:06:30;97704.75;;;17.68;39.26
18988;BME280;5494;51.796;10.952;2023-04-24T11:09:03;97696.81;;;18.12;38.24
18988;BME280;5494;51.796;10.952;2023-04-24T11:11:33;97683.56;;;17.95;36.50
18988;BME280;5494;51.796;10.952;2023-04-24T11:14:04;97689.28;;;17.91;37.00
18988;BME280;5494;51.796;10.952;2023-04-24T11:16:45;97689.28;;;17.91;37.54
18988;BME280;5494;51.796;10.952;2023-04-24T11:19:23;97687.91;;;18.13;36.76
18988;BME280;5494;51.796;10.952;2023-04-24T11:21:58;97692.13;;;18.31;35.63
18988;BME280;5494;51.796;10.952;2023-04-24T11:24:38;97666.28;;;18.27;36.28
18988;BME280;5494;51.796;10.952;2023-04-24T11:27:16;97684.25;;;18.31;36.46
18988;BME280;5494;51.796;10.952;2023-04-24T11:29:48;97659.75;;;17.97;37.08
18988;BME280;5494;51.796;10.952;2023-04-24T11:32:26;97689.88;;;17.77;38.55
18988;BME280;5494;51.796;10.952;2023-04-24T11:34:59;97681.78;;;17.70;38.05
18988;BME280;5494;51.796;10.952;2023-04-24T11:37:33;97666.53;;;17.56;39.23
18988;BME280;5494;51.796;10.952;2023-04-24T11:40:03;97694.91;;;17.70;39.21
18988;BME280;5494;51.796;10.952;2023-04-24T11:42:34;97693.31;;;17.59;38.69
18988;BME280;5494;51.796;10.952;2023-04-24T11:45:08;97693.78;;;17.37;39.91
18988;BME280;5494;51.796;10.952;2023-04-24T11:47:38;97688.41;;;17.03;40.00
18988;BME280;5494;51.796;10.952;2023-04-24T11:50:11;97674.06;;;17.15;40.41
18988;BME280;5494;51.796;10.952;2023-04-24T11:52:42;97691.66;;;17.15;40.33
18988;BME280;5494;51.796;10.952;2023-04-24T11:55:24;97686.53;;;17.57;40.66
18988;BME280;5494;51.796;10.952;2023-04-24T11:57:55;97688.75;;;17.87;39.45
18988;BME280;5494;51.796;10.952;2023-04-24T12:00:29;97686.69;;;17.99;39.93
18988;BME280;5494;51.796;10.952;2023-04-24T12:03:07;97678.81;;;17.99;40.02
18988;BME280;5494;51.796;10.952;2023-04-24T12:05:40;97686.69;;;17.99;40.26
18988;BME280;5494;51.796;10.952;2023-04-24T12:08:08;97683.09;;;17.74;40.32
18988;BME280;5494;51.796;10.952;2023-04-24T12:10:36;97691.28;;;17.53;40.93
18988;BME280;5494;51.796;10.952;2023-04-24T12:13:04;97690.28;;;17.28;41.32
18988;BME280;5494;51.796;10.952;2023-04-24T12:15:32;97686.31;;;17.07;42.02
18988;BME280;5494;51.796;10.952;2023-04-24T12:18:00;97682.84;;;17.24;42.61
18988;BME280;5494;51.796;10.952;2023-04-24T12:20:31;97685.34;;;17.51;41.83
18988;BME280;5494;51.796;10.952;2023-04-24T12:23:01;97685.75;;;17.39;40.76
18988;BME280;5494;51.796;10.952;2023-04-24T12:25:31;97677.59;;;17.06;40.82
18988;BME280;5494;51.796;10.952;2023-04-24T12:28:10;97683.00;;;17.05;41.64
18988;BME280;5494;51.796;10.952;2023-04-24T12:30:42;97692.28;;;17.52;40.74
18988;BME280;5494;51.796;10.952;2023-04-24T12:33:11;97684.50;;;17.25;40.96
18988;BME280;5494;51.796;10.952;2023-04-24T12:35:40;97680.75;;;17.10;41.10
18988;BME280;5494;51.796;10.952;2023-04-24T12:38:12;97693.06;;;16.91;41.58
18988;BME280;5494;51.796;10.952;2023-04-24T12:40:41;97682.31;;;16.85;42.20
18988;BME280;5494;51.796;10.952;2023-04-24T12:43:14;97694.53;;;16.76;42.36
18988;BME280;5494;51.796;10.952;2023-04-24T12:45:43;97701.56;;;16.48;43.24
18988;BME280;5494;51.796;10.952;2023-04-24T12:48:11;97713.78;;;15.93;45.70
18988;BME280;5494;51.796;10.952;2023-04-24T12:50:41;97713.88;;;15.55;49.34
18988;BME280;5494;51.796;10.952;2023-04-24T12:53:14;97715.38;;;15.19;58.45
18988;BME280;5494;51.796;10.952;2023-04-24T12:55:43;97742.25;;;15.11;60.23
18988;BME280;5494;51.796;10.952;2023-04-24T12:58:12;97738.75;;;15.01;59.32
18988;BME280;5494;51.796;10.952;2023-04-24T13:00:40;97753.94;;;15.17;59.21
18988;BME280;5494;51.796;10.952;2023-04-24T13:03:10;97759.41;;;14.94;62.54
18988;BME280;5494;51.796;10.952;2023-04-24T13:05:38;97758.66;;;14.33;64.99
18988;BME280;5494;51.796;10.952;2023-04-24T13:08:06;97758.91;;;14.51;67.97
18988;BME280;5494;51.796;10.952;2023-04-24T13:10:36;97750.06;;;15.02;62.98
18988;BME280;5494;51.796;10.952;2023-04-24T13:13:04;97737.13;;;15.10;59.22
18988;BME280;5494;51.796;10.952;2023-04-24T13:15:32;97744.44;;;15.16;57.00